createdAt,value
2022-09-24T00:01:41.728Z,63.00
2022-09-24T00:04:11.536Z,62.90
2022-09-24T00:06:41.888Z,63.10
2022-09-24T00:09:10.052Z,63.00
2022-09-24T00:11:37.886Z,62.90
2022-09-24T00:14:07.677Z,62.40
2022-09-24T00:16:35.850Z,62.10
2022-09-24T00:19:04.009Z,61.90
2022-09-24T00:21:32.566Z,62.00
2022-09-24T00:24:01.353Z,62.20
2022-09-24T00:26:46.735Z,62.30
2022-09-24T00:29:17.563Z,62.40
2022-09-24T00:31:45.572Z,62.60
2022-09-24T00:34:13.473Z,62.70
2022-09-24T00:36:41.333Z,62.70
2022-09-24T00:39:09.188Z,62.70
2022-09-24T00:41:38.117Z,62.80
2022-09-24T00:44:43.409Z,62.90
2022-09-24T00:47:12.097Z,62.70
2022-09-24T00:49:40.663Z,62.40
2022-09-24T00:52:08.477Z,62.10
2022-09-24T00:54:37.565Z,62.20
2022-09-24T00:57:05.446Z,63.10
2022-09-24T00:59:33.683Z,62.40
2022-09-24T01:02:03.358Z,62.40
2022-09-24T01:04:31.275Z,62.40
2022-09-24T01:06:59.110Z,62.60
2022-09-24T01:09:27.382Z,62.70
2022-09-24T01:11:59.263Z,62.70
2022-09-24T01:14:52.277Z,62.50
2022-09-24T01:17:25.960Z,62.10
2022-09-24T01:20:06.320Z,62.00
2022-09-24T01:22:42.326Z,62.00
2022-09-24T01:25:15.293Z,62.20
2022-09-24T01:27:52.894Z,62.10
2022-09-24T01:30:22.109Z,62.20
2022-09-24T01:32:51.831Z,62.30
2022-09-24T01:35:21.983Z,62.50
2022-09-24T01:37:51.955Z,62.60
2022-09-24T01:40:20.550Z,62.60
2022-09-24T01:42:49.068Z,62.60
2022-09-24T01:45:17.287Z,62.60
2022-09-24T01:47:47.131Z,62.70
2022-09-24T01:50:16.988Z,62.90
2022-09-24T01:52:47.646Z,62.70
2022-09-24T01:55:17.067Z,62.40
2022-09-24T01:57:46.378Z,61.90
2022-09-24T02:00:15.027Z,61.60
2022-09-24T02:02:46.707Z,61.60
2022-09-24T02:05:17.500Z,61.80
2022-09-24T02:07:48.080Z,62.00
2022-09-24T02:10:16.521Z,62.20
2022-09-24T02:12:44.948Z,62.40
2022-09-24T02:15:14.213Z,62.40
2022-09-24T02:17:42.821Z,62.50
2022-09-24T02:20:13.278Z,62.50
2022-09-24T02:22:41.215Z,62.60
2022-09-24T02:25:10.628Z,62.70
2022-09-24T02:27:38.489Z,62.60
2022-09-24T02:30:07.365Z,62.60
2022-09-24T02:32:35.489Z,62.70
2022-09-24T02:35:04.639Z,62.80
2022-09-24T02:37:35.198Z,62.90
2022-09-24T02:40:04.481Z,62.90
2022-09-24T02:42:32.390Z,62.70
2022-09-24T02:45:00.509Z,62.30
2022-09-24T02:47:28.657Z,62.00
2022-09-24T02:49:57.022Z,61.60
2022-09-24T02:52:24.881Z,61.60
2022-09-24T02:54:54.088Z,61.70
2022-09-24T02:57:21.981Z,61.90
2022-09-24T02:59:49.826Z,62.10
2022-09-24T03:02:17.794Z,62.30
2022-09-24T03:04:47.101Z,62.30
2022-09-24T03:07:15.511Z,62.40
2022-09-24T03:09:43.377Z,62.40
2022-09-24T03:12:12.679Z,62.50
2022-09-24T03:14:40.574Z,62.60
2022-09-24T03:17:08.414Z,62.50
2022-09-24T03:19:36.287Z,62.60
2022-09-24T03:22:04.133Z,62.60
2022-09-24T03:24:31.987Z,62.70
2022-09-24T03:26:59.837Z,62.70
2022-09-24T03:29:42.966Z,62.80
2022-09-24T03:32:10.800Z,62.40
2022-09-24T03:34:38.650Z,62.10
2022-09-24T03:37:06.994Z,61.60
2022-09-24T03:39:34.814Z,61.30
2022-09-24T03:42:02.715Z,61.40
2022-09-24T03:44:31.915Z,61.60
2022-09-24T03:46:59.779Z,61.70
2022-09-24T03:49:27.627Z,61.90
2022-09-24T03:51:55.496Z,62.10
2022-09-24T03:54:23.336Z,62.10
2022-09-24T03:56:51.180Z,62.20
2022-09-24T03:59:19.063Z,62.30
2022-09-24T04:01:48.415Z,62.40
2022-09-24T04:04:16.801Z,62.50
2022-09-24T04:06:44.694Z,62.40
2022-09-24T04:09:12.562Z,62.50
2022-09-24T04:11:40.443Z,62.50
2022-09-24T04:14:09.449Z,62.50
2022-09-24T04:16:37.491Z,62.60
2022-09-24T04:19:07.719Z,62.60
2022-09-24T04:21:35.761Z,62.30
2022-09-24T04:24:03.838Z,62.00
2022-09-24T04:26:31.701Z,61.60
2022-09-24T04:28:59.699Z,61.30
2022-09-24T04:31:28.013Z,61.30
2022-09-24T04:33:55.942Z,61.50
2022-09-24T04:36:25.198Z,61.70
2022-09-24T04:38:53.244Z,61.90
2022-09-24T04:41:21.105Z,62.10
2022-09-24T04:43:48.992Z,62.10
2022-09-24T04:46:18.109Z,62.10
2022-09-24T04:48:46.028Z,62.20
2022-09-24T04:51:13.871Z,62.30
2022-09-24T04:53:43.052Z,62.50
2022-09-24T04:56:11.871Z,62.50
2022-09-24T04:58:39.812Z,62.40
2022-09-24T05:01:07.671Z,62.50
2022-09-24T05:03:35.511Z,62.50
2022-09-24T05:06:03.362Z,62.40
2022-09-24T05:08:31.209Z,62.70
2022-09-24T05:11:02.319Z,62.50
2022-09-24T05:13:30.179Z,62.20
2022-09-24T05:16:00.843Z,61.90
2022-09-24T05:18:28.879Z,61.50
2022-09-24T05:20:56.756Z,61.20
2022-09-24T05:23:25.056Z,61.10
2022-09-24T05:26:10.252Z,61.20
2022-09-24T05:28:39.536Z,61.40
2022-09-24T05:31:08.427Z,61.70
2022-09-24T05:33:36.690Z,62.00
2022-09-24T05:36:04.717Z,62.00
2022-09-24T05:38:33.920Z,62.10
2022-09-24T05:41:01.855Z,62.20
2022-09-24T05:43:31.417Z,62.30
2022-09-24T05:46:00.662Z,62.40
2022-09-24T05:48:28.618Z,62.40
2022-09-24T05:50:56.517Z,62.50
2022-09-24T05:53:24.369Z,62.40
2022-09-24T05:55:52.209Z,62.40
2022-09-24T05:58:20.605Z,62.60
2022-09-24T06:00:48.521Z,62.60
2022-09-24T06:03:18.620Z,62.40
2022-09-24T06:05:47.141Z,61.90
2022-09-24T06:08:15.950Z,61.40
2022-09-24T06:10:44.038Z,61.30
2022-09-24T06:13:12.805Z,61.20
2022-09-24T06:15:41.343Z,61.50
2022-09-24T06:18:09.340Z,61.70
2022-09-24T06:20:38.602Z,62.00
2022-09-24T06:23:07.675Z,62.10
2022-09-24T06:25:35.510Z,62.10
2022-09-24T06:28:04.447Z,62.20
2022-09-24T06:30:34.445Z,62.30
2022-09-24T06:33:04.524Z,62.40
2022-09-24T06:35:32.704Z,62.60
2022-09-24T06:38:01.919Z,62.40
2022-09-24T06:40:34.054Z,62.40
2022-09-24T06:43:05.091Z,62.40
2022-09-24T06:45:33.055Z,62.60
2022-09-24T06:48:01.503Z,62.70
2022-09-24T06:50:30.713Z,62.60
2022-09-24T06:52:58.588Z,62.50
2022-09-24T06:55:27.880Z,62.10
2022-09-24T06:58:03.231Z,61.70
2022-09-24T07:00:31.096Z,61.30
2022-09-24T07:02:58.940Z,61.20
2022-09-24T07:05:26.768Z,61.30
2022-09-24T07:07:54.655Z,61.50
2022-09-24T07:10:24.479Z,61.80
2022-09-24T07:12:53.696Z,62.00
2022-09-24T07:15:21.551Z,62.10
2022-09-24T07:17:49.394Z,62.20
2022-09-24T07:20:17.316Z,62.20
2022-09-24T07:22:45.174Z,62.40
2022-09-24T07:25:13.105Z,62.60
2022-09-24T07:27:40.973Z,62.50
2022-09-24T07:30:10.831Z,62.20
2022-09-24T07:32:38.684Z,61.60
2022-09-24T07:35:07.442Z,61.70
2022-09-24T07:37:35.287Z,61.80
2022-09-24T07:40:03.302Z,62.00
2022-09-24T07:42:31.162Z,61.90
2022-09-24T07:44:59.299Z,62.00
2022-09-24T07:47:28.507Z,62.20
2022-09-24T07:49:56.333Z,62.20
2022-09-24T07:52:24.222Z,62.50
2022-09-24T07:54:52.290Z,62.40
2022-09-24T07:57:20.160Z,62.40
2022-09-24T07:59:48.085Z,62.40
2022-09-24T08:02:16.687Z,62.40
2022-09-24T08:04:46.030Z,62.60
2022-09-24T08:07:14.114Z,62.70
2022-09-24T08:09:41.975Z,62.40
2022-09-24T08:12:10.032Z,62.10
2022-09-24T08:14:38.119Z,61.80
2022-09-24T08:17:05.968Z,61.70
2022-09-24T08:19:34.377Z,61.80
2022-09-24T08:22:05.235Z,62.00
2022-09-24T08:24:33.135Z,62.60
2022-09-24T08:27:01.057Z,61.90
2022-09-24T08:29:28.982Z,62.00
2022-09-24T08:31:57.275Z,62.10
2022-09-24T08:34:25.186Z,62.40
2022-09-24T08:36:53.121Z,62.40
2022-09-24T08:39:22.311Z,62.40
2022-09-24T08:41:55.961Z,62.40
2022-09-24T08:44:46.857Z,62.60
2022-09-24T08:47:24.855Z,62.80
2022-09-24T08:49:58.024Z,62.70
2022-09-24T08:52:37.721Z,62.40
2022-09-24T08:55:08.539Z,62.10
2022-09-24T08:57:40.170Z,61.70
2022-09-24T09:00:14.137Z,61.50
2022-09-24T09:02:44.948Z,61.50
2022-09-24T09:05:17.056Z,61.70
2022-09-24T09:07:46.435Z,61.90
2022-09-24T09:10:16.218Z,62.30
2022-09-24T09:12:46.094Z,62.40
2022-09-24T09:15:15.601Z,62.40
2022-09-24T09:17:45.661Z,62.50
2022-09-24T09:20:16.934Z,62.60
2022-09-24T09:22:46.340Z,62.70
2022-09-24T09:25:23.876Z,62.90
2022-09-24T09:27:53.492Z,62.70
2022-09-24T09:30:21.894Z,62.70
2022-09-24T09:33:12.513Z,63.50
2022-09-24T09:35:44.183Z,62.90
2022-09-24T09:38:17.653Z,63.10
2022-09-24T09:40:49.250Z,62.80
2022-09-24T09:43:19.003Z,62.60
2022-09-24T09:45:52.667Z,62.20
2022-09-24T09:48:21.562Z,61.80
2022-09-24T09:50:50.392Z,61.70
2022-09-24T09:53:21.991Z,61.70
2022-09-24T09:55:54.752Z,62.00
2022-09-24T09:58:24.172Z,62.20
2022-09-24T10:00:52.055Z,62.40
2022-09-24T10:03:24.972Z,62.60
2022-09-24T10:05:55.084Z,62.50
2022-09-24T10:08:23.007Z,62.60
2022-09-24T10:10:56.288Z,62.70
2022-09-24T10:13:24.320Z,62.90
2022-09-24T10:15:52.797Z,62.90
2022-09-24T10:18:27.629Z,62.70
2022-09-24T10:20:55.767Z,62.80
2022-09-24T10:23:26.198Z,62.80
2022-09-24T10:25:58.398Z,63.00
2022-09-24T10:28:43.627Z,63.20
2022-09-24T10:31:12.994Z,62.90
2022-09-24T10:33:41.499Z,62.60
2022-09-24T10:36:22.190Z,62.30
2022-09-24T10:38:50.129Z,61.90
2022-09-24T10:41:25.966Z,61.70
2022-09-24T10:43:54.152Z,61.80
2022-09-24T10:46:32.795Z,62.00
2022-09-24T10:49:02.457Z,62.90
2022-09-24T10:51:33.858Z,62.60
2022-09-24T10:54:15.530Z,62.60
2022-09-24T10:56:46.661Z,62.50
2022-09-24T10:59:45.091Z,62.70
2022-09-24T11:02:36.936Z,62.80
2022-09-24T11:05:06.227Z,63.00
2022-09-24T11:08:00.287Z,62.90
2022-09-24T11:10:51.307Z,62.80
2022-09-24T11:13:24.499Z,63.00
2022-09-24T11:16:09.031Z,63.00
2022-09-24T11:18:41.201Z,63.30
2022-09-24T11:21:15.797Z,63.10
2022-09-24T11:24:08.411Z,62.80
2022-09-24T11:26:40.856Z,62.40
2022-09-24T11:29:16.827Z,62.10
2022-09-24T11:31:49.305Z,61.90
2022-09-24T11:34:24.826Z,62.00
2022-09-24T11:37:01.221Z,62.20
2022-09-24T11:39:35.849Z,62.50
2022-09-24T11:42:08.557Z,62.90
2022-09-24T11:44:58.922Z,62.80
2022-09-24T11:47:37.811Z,62.80
2022-09-24T11:50:16.867Z,62.90
2022-09-24T11:52:46.221Z,63.00
2022-09-24T11:55:16.198Z,63.30
2022-09-24T11:57:45.866Z,63.00
2022-09-24T12:00:17.296Z,63.00
2022-09-24T12:02:46.668Z,63.00
2022-09-24T12:05:19.411Z,63.10
2022-09-24T12:07:50.169Z,63.30
2022-09-24T12:10:25.971Z,63.40
2022-09-24T12:12:55.153Z,63.30
2022-09-24T12:15:25.320Z,62.90
2022-09-24T12:17:56.884Z,62.40
2022-09-24T12:20:26.159Z,62.20
2022-09-24T12:22:59.896Z,62.10
2022-09-24T12:25:28.173Z,62.20
2022-09-24T12:27:56.020Z,62.30
2022-09-24T12:30:47.635Z,62.50
2022-09-24T12:33:18.405Z,62.90
2022-09-24T12:36:07.882Z,62.80
2022-09-24T12:38:37.156Z,62.90
2022-09-24T12:41:24.610Z,62.90
2022-09-24T12:43:55.153Z,63.10
2022-09-24T12:46:26.606Z,63.30
2022-09-24T12:48:54.556Z,63.20
2022-09-24T12:51:23.854Z,63.20
2022-09-24T12:53:59.632Z,63.10
2022-09-24T12:56:29.541Z,63.20
2022-09-24T12:58:59.603Z,63.50
2022-09-24T13:01:30.996Z,63.40
2022-09-24T13:04:29.328Z,63.20
2022-09-24T13:06:57.283Z,62.70
2022-09-24T13:09:36.562Z,62.40
2022-09-24T13:12:09.021Z,62.20
2022-09-24T13:14:36.888Z,62.30
2022-09-24T13:17:07.889Z,62.50
2022-09-24T13:19:37.366Z,62.70
2022-09-24T13:22:05.346Z,63.10
2022-09-24T13:24:37.341Z,63.10
2022-09-24T13:27:21.755Z,63.00
2022-09-24T13:29:51.518Z,63.00
2022-09-24T13:32:20.767Z,63.10
2022-09-24T13:34:50.451Z,63.30
2022-09-24T13:37:21.615Z,63.60
2022-09-24T13:39:52.637Z,63.30
2022-09-24T13:42:21.643Z,63.10
2022-09-24T13:44:50.127Z,62.80
2022-09-24T13:47:23.239Z,63.00
2022-09-24T13:49:52.281Z,63.00
2022-09-24T13:52:28.189Z,63.00
2022-09-24T13:54:57.035Z,63.00
2022-09-24T13:57:25.802Z,63.00
2022-09-24T14:00:05.497Z,63.20
2022-09-24T14:02:36.014Z,63.40
2022-09-24T14:05:03.990Z,63.40
2022-09-24T14:07:31.866Z,63.30
2022-09-24T14:10:07.387Z,63.20
2022-09-24T14:12:35.224Z,63.30
2022-09-24T14:15:08.355Z,63.30
2022-09-24T14:17:37.576Z,63.70
2022-09-24T14:20:06.434Z,63.70
2022-09-24T14:22:35.968Z,63.40
2022-09-24T14:25:05.144Z,63.00
2022-09-24T14:27:33.055Z,62.70
2022-09-24T14:30:01.894Z,62.60
2022-09-24T14:32:30.303Z,62.40
2022-09-24T14:35:00.183Z,62.70
2022-09-24T14:37:28.897Z,62.90
2022-09-24T14:40:02.797Z,63.00
2022-09-24T14:42:32.918Z,63.20
2022-09-24T14:45:01.125Z,63.30
2022-09-24T14:47:29.830Z,63.30
2022-09-24T14:49:59.044Z,63.50
2022-09-24T14:52:30.227Z,63.60
2022-09-24T14:55:14.277Z,63.70
2022-09-24T14:57:46.037Z,63.70
2022-09-24T15:00:21.630Z,63.60
2022-09-24T15:02:51.135Z,64.10
2022-09-24T15:05:24.191Z,63.90
2022-09-24T15:07:52.117Z,63.50
2022-09-24T15:10:21.976Z,63.10
2022-09-24T15:12:49.829Z,62.60
2022-09-24T15:15:28.911Z,62.10
2022-09-24T15:17:57.232Z,61.50
2022-09-24T15:20:26.568Z,60.90
2022-09-24T15:22:54.426Z,60.50
2022-09-24T15:25:22.255Z,60.10
2022-09-24T15:27:52.720Z,59.90
2022-09-24T15:30:20.999Z,59.80
2022-09-24T15:32:49.872Z,59.80
2022-09-24T15:35:17.951Z,59.80
2022-09-24T15:37:48.550Z,60.00
2022-09-24T15:40:22.763Z,60.40
2022-09-24T15:42:50.864Z,60.90
2022-09-24T15:45:19.635Z,61.10
2022-09-24T15:47:47.666Z,61.30
2022-09-24T15:50:15.692Z,61.40
2022-09-24T15:52:47.625Z,61.80
2022-09-24T15:55:17.286Z,62.30
2022-09-24T15:57:46.168Z,62.30
2022-09-24T16:00:16.070Z,62.20
2022-09-24T16:02:44.830Z,61.80
2022-09-24T16:05:13.393Z,61.50
2022-09-24T16:07:41.246Z,61.50
2022-09-24T16:10:11.123Z,61.50
2022-09-24T16:12:38.997Z,61.80
2022-09-24T16:15:07.720Z,62.00
2022-09-24T16:17:35.588Z,62.50
2022-09-24T16:20:03.679Z,62.60
2022-09-24T16:22:31.585Z,62.50
2022-09-24T16:24:59.427Z,62.60
2022-09-24T16:27:28.668Z,62.80
2022-09-24T16:29:56.530Z,63.20
2022-09-24T16:32:24.376Z,63.10
2022-09-24T16:34:54.748Z,62.70
2022-09-24T16:37:22.601Z,62.50
2022-09-24T16:39:50.536Z,62.40
2022-09-24T16:42:18.376Z,62.70
2022-09-24T16:44:47.568Z,62.70
2022-09-24T16:47:16.273Z,62.60
2022-09-24T16:49:44.356Z,62.70
2022-09-24T16:52:12.198Z,62.80
2022-09-24T16:54:40.112Z,63.20
2022-09-24T16:57:08.368Z,63.10
2022-09-24T16:59:36.255Z,63.00
2022-09-24T17:02:05.530Z,63.00
2022-09-24T17:04:34.350Z,63.10
2022-09-24T17:07:02.407Z,63.50
2022-09-24T17:09:47.874Z,63.50
2022-09-24T17:12:15.726Z,63.30
2022-09-24T17:14:43.621Z,62.90
2022-09-24T17:17:12.810Z,62.50
2022-09-24T17:19:40.686Z,62.30
2022-09-24T17:22:08.600Z,62.30
2022-09-24T17:24:39.842Z,62.30
2022-09-24T17:27:08.179Z,62.40
2022-09-24T17:29:36.078Z,62.80
2022-09-24T17:32:04.177Z,63.20
2022-09-24T17:34:33.384Z,63.00
2022-09-24T17:37:01.269Z,63.00
2022-09-24T17:39:30.682Z,63.10
2022-09-24T17:41:58.553Z,63.40
2022-09-24T17:44:26.412Z,63.50
2022-09-24T17:46:54.322Z,63.40
2022-09-24T17:49:22.249Z,63.10
2022-09-24T17:51:51.479Z,62.90
2022-09-24T17:54:21.382Z,62.70
2022-09-24T17:56:49.284Z,63.10
2022-09-24T17:59:17.160Z,63.10
2022-09-24T18:01:45.215Z,63.00
2022-09-24T18:04:14.323Z,62.90
2022-09-24T18:06:43.016Z,63.00
2022-09-24T18:09:13.097Z,63.50
2022-09-24T18:11:41.846Z,63.50
2022-09-24T18:14:11.538Z,63.30
2022-09-24T18:16:39.399Z,63.30
2022-09-24T18:19:07.278Z,63.30
2022-09-24T18:21:35.145Z,63.70
2022-09-24T18:24:03.113Z,63.80
2022-09-24T18:26:34.956Z,63.60
2022-09-24T18:29:04.065Z,63.20
2022-09-24T18:31:32.082Z,62.90
2022-09-24T18:34:05.046Z,62.50
2022-09-24T18:36:33.561Z,62.50
2022-09-24T18:39:01.437Z,62.50
2022-09-24T18:41:29.964Z,62.60
2022-09-24T18:43:59.493Z,62.80
2022-09-24T18:46:29.058Z,63.30
2022-09-24T18:48:57.467Z,63.20
2022-09-24T18:51:26.234Z,63.20
2022-09-24T18:53:54.487Z,63.20
2022-09-24T18:56:23.960Z,63.40
2022-09-24T18:58:56.220Z,63.80
2022-09-24T19:01:26.045Z,63.60
2022-09-24T19:03:54.026Z,63.50
2022-09-24T19:06:22.027Z,63.40
2022-09-24T19:08:50.018Z,63.50
2022-09-24T19:11:18.301Z,64.00
2022-09-24T19:13:49.070Z,63.90
2022-09-24T19:16:17.542Z,63.50
2022-09-24T19:18:46.767Z,63.10
2022-09-24T19:21:15.454Z,62.80
2022-09-24T19:23:44.159Z,62.60
2022-09-24T19:26:16.412Z,63.20
2022-09-24T19:28:44.636Z,62.50
2022-09-24T19:31:16.353Z,62.70
2022-09-24T19:33:46.247Z,63.30
2022-09-24T19:36:14.140Z,63.40
2022-09-24T19:38:42.222Z,63.20
2022-09-24T19:41:12.844Z,63.20
2022-09-24T19:43:40.996Z,63.30
2022-09-24T19:46:10.134Z,63.50
2022-09-24T19:48:39.906Z,63.80
2022-09-24T19:51:09.899Z,63.60
2022-09-24T19:53:37.880Z,63.60
2022-09-24T19:56:06.256Z,63.50
2022-09-24T19:58:34.142Z,63.70
2022-09-24T20:01:02.908Z,64.00
2022-09-24T20:03:32.378Z,63.90
2022-09-24T20:06:00.286Z,63.60
2022-09-24T20:08:29.498Z,63.10
2022-09-24T20:10:57.334Z,62.80
2022-09-24T20:13:25.200Z,62.70
2022-09-24T20:15:57.899Z,62.70
2022-09-24T20:18:25.868Z,62.80
2022-09-24T20:20:54.590Z,63.00
2022-09-24T20:23:22.530Z,63.40
2022-09-24T20:26:09.933Z,63.50
2022-09-24T20:28:37.800Z,63.40
2022-09-24T20:31:10.720Z,63.40
2022-09-24T20:33:40.177Z,63.40
2022-09-24T20:36:15.241Z,63.90
2022-09-24T20:38:45.058Z,63.70
2022-09-24T20:41:15.145Z,63.60
2022-09-24T20:43:43.350Z,63.60
2022-09-24T20:46:13.925Z,63.60
2022-09-24T20:48:41.809Z,64.10
2022-09-24T20:51:10.145Z,64.00
2022-09-24T20:53:38.015Z,63.70
2022-09-24T20:56:06.844Z,63.30
2022-09-24T20:58:36.044Z,63.00
2022-09-24T21:01:04.061Z,62.70
2022-09-24T21:03:44.027Z,62.60
2022-09-24T21:06:13.290Z,62.70
2022-09-24T21:08:43.248Z,62.80
2022-09-24T21:11:12.167Z,63.30
2022-09-24T21:13:42.701Z,63.40
2022-09-24T21:16:10.603Z,63.30
2022-09-24T21:18:40.496Z,63.30
2022-09-24T21:21:11.375Z,63.30
2022-09-24T21:23:39.954Z,63.70
2022-09-24T21:26:14.878Z,63.90
2022-09-24T21:28:44.254Z,63.60
2022-09-24T21:31:12.171Z,63.40
2022-09-24T21:33:40.127Z,63.10
2022-09-24T21:36:08.601Z,63.00
2022-09-24T21:38:37.094Z,63.40
2022-09-24T21:41:06.453Z,63.30
2022-09-24T21:43:35.095Z,63.20
2022-09-24T21:46:06.250Z,63.20
2022-09-24T21:48:34.421Z,63.30
2022-09-24T21:51:05.766Z,63.80
2022-09-24T21:53:33.846Z,63.70
2022-09-24T21:56:02.114Z,63.50
2022-09-24T21:58:30.303Z,63.30
2022-09-24T22:01:02.276Z,63.20
2022-09-24T22:03:33.706Z,63.30
2022-09-24T22:06:03.605Z,63.50
2022-09-24T22:08:31.966Z,63.40
2022-09-24T22:11:04.619Z,63.40
2022-09-24T22:13:32.809Z,63.50
2022-09-24T22:16:01.477Z,63.60
2022-09-24T22:18:29.399Z,63.80
2022-09-24T22:20:58.934Z,64.50
2022-09-24T22:23:26.832Z,63.60
2022-09-24T22:25:55.409Z,63.60
2022-09-24T22:28:25.205Z,63.70
2022-09-24T22:30:53.401Z,64.00
2022-09-24T22:33:38.781Z,64.00
2022-09-24T22:36:08.247Z,63.50
2022-09-24T22:38:36.291Z,63.20
2022-09-24T22:41:04.488Z,62.80
2022-09-24T22:43:32.404Z,62.60
2022-09-24T22:46:00.490Z,62.50
2022-09-24T22:48:28.419Z,62.60
2022-09-24T22:50:56.407Z,62.80
2022-09-24T22:53:25.690Z,63.30
2022-09-24T22:56:03.604Z,63.50
2022-09-24T22:58:32.206Z,63.40
2022-09-24T23:01:07.492Z,63.30
2022-09-24T23:03:35.742Z,63.50
2022-09-24T23:06:03.639Z,63.50
2022-09-24T23:08:33.114Z,63.80
2022-09-24T23:11:07.059Z,63.70
2022-09-24T23:13:34.917Z,63.50
2022-09-24T23:16:10.591Z,63.30
2022-09-24T23:18:38.832Z,63.10
2022-09-24T23:21:07.478Z,63.40
2022-09-24T23:23:36.676Z,63.40
2022-09-24T23:26:07.005Z,63.30
2022-09-24T23:28:35.435Z,63.30
2022-09-24T23:31:03.693Z,63.30
2022-09-24T23:33:33.105Z,63.70
2022-09-24T23:36:01.092Z,63.70
2022-09-24T23:38:28.939Z,63.50
2022-09-24T23:40:58.762Z,63.30
2022-09-24T23:43:27.388Z,63.10
2022-09-24T23:45:55.337Z,63.10
2022-09-24T23:48:23.254Z,63.40
2022-09-24T23:50:51.116Z,63.40
2022-09-24T23:53:19.506Z,63.30
2022-09-24T23:55:47.920Z,64.00
2022-09-24T23:58:17.977Z,63.40
